sensor_id;sensor_type;location;lat;lon;timestamp;pressure;altitude;pressure_sealevel;temperature;humidity
58534;BME280;44109;52.398;7.024;2023-04-23T00:01:55;100569.94;;;10.08;100.00
58534;BME280;44109;52.398;7.024;2023-04-23T00:07:01;100570.31;;;10.06;100.00
58534;BME280;44109;52.398;7.024;2023-04-23T00:09:30;100567.53;;;10.06;100.00
58534;BME280;44109;52.398;7.024;2023-04-23T00:11:59;100535.75;;;9.74;100.00
58534;BME280;44109;52.398;7.024;2023-04-23T00:14:28;100547.78;;;9.85;100.00
58534;BME280;44109;52.398;7.024;2023-04-23T00:16:56;100570.94;;;9.96;100.00
58534;BME280;44109;52.398;7.024;2023-04-23T00:19:24;100562.25;;;9.98;100.00
58534;BME280;44109;52.398;7.024;2023-04-23T00:21:52;100551.50;;;9.93;100.00
58534;BME280;44109;52.398;7.024;2023-04-23T00:24:21;100561.06;;;9.99;100.00
58534;BME280;44109;52.398;7.024;2023-04-23T00:26:48;100557.50;;;9.98;100.00
58534;BME280;44109;52.398;7.024;2023-04-23T00:29:17;100561.06;;;9.99;100.00
58534;BME280;44109;52.398;7.024;2023-04-23T00:31:45;100566.19;;;9.97;100.00
58534;BME280;44109;52.398;7.024;2023-04-23T00:34:13;100564.59;;;9.96;100.00
58534;BME280;44109;52.398;7.024;2023-04-23T00:36:41;100563.00;;;9.95;100.00
58534;BME280;44109;52.398;7.024;2023-04-23T00:39:08;100551.38;;;9.85;100.00
58534;BME280;44109;52.398;7.024;2023-04-23T00:41:38;100558.28;;;9.95;100.00
58534;BME280;44109;52.398;7.024;2023-04-23T00:44:06;100564.47;;;9.88;100.00
58534;BME280;44109;52.398;7.024;2023-04-23T00:46:35;100550.94;;;9.83;100.00
58534;BME280;44109;52.398;7.024;2023-04-23T00:49:03;100555.00;;;9.89;100.00
58534;BME280;44109;52.398;7.024;2023-04-23T00:51:31;100557.34;;;9.87;100.00
58534;BME280;44109;52.398;7.024;2023-04-23T00:53:58;100552.19;;;9.86;100.00
58534;BME280;44109;52.398;7.024;2023-04-23T00:56:26;100531.75;;;9.71;100.00
58534;BME280;44109;52.398;7.024;2023-04-23T00:58:56;100554.97;;;9.86;100.00
58534;BME280;44109;52.398;7.024;2023-04-23T01:01:24;100542.94;;;9.78;100.00
58534;BME280;44109;52.398;7.024;2023-04-23T01:03:52;100549.78;;;9.84;100.00
58534;BME280;44109;52.398;7.024;2023-04-23T01:06:21;100552.53;;;9.84;100.00
58534;BME280;44109;52.398;7.024;2023-04-23T01:08:50;100534.19;;;9.76;100.00
58534;BME280;44109;52.398;7.024;2023-04-23T01:11:17;100549.34;;;9.82;100.00
58534;BME280;44109;52.398;7.024;2023-04-23T01:13:45;100549.34;;;9.82;100.00
58534;BME280;44109;52.398;7.024;2023-04-23T01:16:14;100550.16;;;9.83;100.00
58534;BME280;44109;52.398;7.024;2023-04-23T01:18:42;100527.75;;;9.69;100.00
58534;BME280;44109;52.398;7.024;2023-04-23T01:21:10;100553.31;;;9.81;100.00
58534;BME280;44109;52.398;7.024;2023-04-23T01:23:40;100550.47;;;9.78;100.00
58534;BME280;44109;52.398;7.024;2023-04-23T01:26:08;100546.03;;;9.73;100.00
58534;BME280;44109;52.398;7.024;2023-04-23T01:28:36;100529.22;;;9.62;100.00
58534;BME280;44109;52.398;7.024;2023-04-23T01:31:04;100545.97;;;9.70;100.00
58534;BME280;44109;52.398;7.024;2023-04-23T01:33:32;100553.91;;;9.71;100.00
58534;BME280;44109;52.398;7.024;2023-04-23T01:36:02;100539.50;;;9.62;100.00
58534;BME280;44109;52.398;7.024;2023-04-23T01:38:32;100529.06;;;9.52;100.00
58534;BME280;44109;52.398;7.024;2023-04-23T01:41:03;100548.25;;;9.64;100.00
58534;BME280;44109;52.398;7.024;2023-04-23T01:43:32;100551.81;;;9.64;100.00
58534;BME280;44109;52.398;7.024;2023-04-23T01:46:00;100548.25;;;9.64;100.00
58534;BME280;44109;52.398;7.024;2023-04-23T01:48:29;100533.94;;;9.58;100.00
58534;BME280;44109;52.398;7.024;2023-04-23T01:50:56;100541.13;;;9.63;100.00
58534;BME280;44109;52.398;7.024;2023-04-23T01:53:25;100541.13;;;9.63;100.00
58534;BME280;44109;52.398;7.024;2023-04-23T01:55:55;100526.28;;;9.52;100.00
58534;BME280;44109;52.398;7.024;2023-04-23T01:58:28;100539.88;;;9.60;100.00
58534;BME280;44109;52.398;7.024;2023-04-23T02:00:55;100547.41;;;9.60;100.00
58534;BME280;44109;52.398;7.024;2023-04-23T02:03:23;100551.38;;;9.62;100.00
58534;BME280;44109;52.398;7.024;2023-04-23T02:05:52;100500.13;;;9.26;100.00
58534;BME280;44109;52.398;7.024;2023-04-23T02:08:21;100542.50;;;9.53;100.00
58534;BME280;44109;52.398;7.024;2023-04-23T02:10:49;100524.75;;;9.31;100.00
58534;BME280;44109;52.398;7.024;2023-04-23T02:13:16;100540.59;;;9.34;100.00
58534;BME280;44109;52.398;7.024;2023-04-23T02:15:45;100539.63;;;9.23;100.00
58534;BME280;44109;52.398;7.024;2023-04-23T02:18:13;100550.53;;;9.16;100.00
58534;BME280;44109;52.398;7.024;2023-04-23T02:20:41;100545.25;;;9.07;100.00
58534;BME280;44109;52.398;7.024;2023-04-23T02:23:09;100543.88;;;8.98;100.00
58534;BME280;44109;52.398;7.024;2023-04-23T02:25:37;100545.25;;;8.88;100.00
58534;BME280;44109;52.398;7.024;2023-04-23T02:28:05;100546.78;;;8.85;100.00
58534;BME280;44109;52.398;7.024;2023-04-23T02:30:33;100541.63;;;8.84;100.00
58534;BME280;44109;52.398;7.024;2023-04-23T02:33:03;100539.56;;;8.81;100.00
58534;BME280;44109;52.398;7.024;2023-04-23T02:35:31;100541.91;;;8.79;100.00
58534;BME280;44109;52.398;7.024;2023-04-23T02:37:58;100545.78;;;8.74;100.00
58534;BME280;44109;52.398;7.024;2023-04-23T02:40:26;100550.44;;;8.70;100.00
58534;BME280;44109;52.398;7.024;2023-04-23T02:42:53;100540.81;;;8.64;100.00
58534;BME280;44109;52.398;7.024;2023-04-23T02:45:21;100539.22;;;8.63;100.00
58534;BME280;44109;52.398;7.024;2023-04-23T02:47:49;100523.50;;;8.48;100.00
58534;BME280;44109;52.398;7.024;2023-04-23T02:50:20;100539.94;;;8.60;100.00
58534;BME280;44109;52.398;7.024;2023-04-23T02:52:47;100540.31;;;8.58;100.00
58534;BME280;44109;52.398;7.024;2023-04-23T02:55:15;100533.84;;;8.51;100.00
58534;BME280;44109;52.398;7.024;2023-04-23T02:57:43;100511.41;;;8.36;100.00
58534;BME280;44109;52.398;7.024;2023-04-23T03:00:12;100527.13;;;8.52;100.00
58534;BME280;44109;52.398;7.024;2023-04-23T03:02:40;100535.81;;;8.50;100.00
58534;BME280;44109;52.398;7.024;2023-04-23T03:05:08;100502.22;;;8.32;100.00
58534;BME280;44109;52.398;7.024;2023-04-23T03:07:37;100529.38;;;8.46;100.00
58534;BME280;44109;52.398;7.024;2023-04-23T03:10:06;100494.56;;;8.26;100.00
58534;BME280;44109;52.398;7.024;2023-04-23T03:12:34;100526.03;;;8.37;100.00
58534;BME280;44109;52.398;7.024;2023-04-23T03:15:02;100493.53;;;8.14;100.00
58534;BME280;44109;52.398;7.024;2023-04-23T03:17:30;100494.63;;;8.10;100.00
58534;BME280;44109;52.398;7.024;2023-04-23T03:19:58;100511.34;;;8.17;100.00
58534;BME280;44109;52.398;7.024;2023-04-23T03:22:26;100499.97;;;8.03;100.00
58534;BME280;44109;52.398;7.024;2023-04-23T03:24:55;100513.06;;;8.06;100.00
58534;BME280;44109;52.398;7.024;2023-04-23T03:27:22;100507.91;;;8.04;100.00
58534;BME280;44109;52.398;7.024;2023-04-23T03:29:50;100508.72;;;8.05;100.00
58534;BME280;44109;52.398;7.024;2023-04-23T03:32:18;100511.09;;;8.06;100.00
58534;BME280;44109;52.398;7.024;2023-04-23T03:34:45;100497.66;;;8.05;100.00
58534;BME280;44109;52.398;7.024;2023-04-23T03:37:13;100493.28;;;8.04;100.00
58534;BME280;44109;52.398;7.024;2023-04-23T03:39:40;100501.13;;;8.02;100.00
58534;BME280;44109;52.398;7.024;2023-04-23T03:42:09;100496.03;;;8.04;100.00
58534;BME280;44109;52.398;7.024;2023-04-23T03:44:37;100485.06;;;8.07;100.00
58534;BME280;44109;52.398;7.024;2023-04-23T03:47:05;100491.41;;;8.08;100.00
58534;BME280;44109;52.398;7.024;2023-04-23T03:49:32;100494.63;;;8.10;100.00
58534;BME280;44109;52.398;7.024;2023-04-23T03:52:00;100497.97;;;8.19;100.00
58534;BME280;44109;52.398;7.024;2023-04-23T03:54:27;100497.25;;;8.22;100.00
58534;BME280;44109;52.398;7.024;2023-04-23T03:56:55;100492.16;;;8.24;100.00
58534;BME280;44109;52.398;7.024;2023-04-23T03:59:24;100490.09;;;8.21;100.00
58534;BME280;44109;52.398;7.024;2023-04-23T04:01:52;100485.47;;;8.25;100.00
58534;BME280;44109;52.398;7.024;2023-04-23T04:04:19;100483.22;;;8.31;100.00
58534;BME280;44109;52.398;7.024;2023-04-23T04:06:47;100485.00;;;8.39;100.00
58534;BME280;44109;52.398;7.024;2023-04-23T04:09:15;100482.41;;;8.46;100.00
58534;BME280;44109;52.398;7.024;2023-04-23T04:11:42;100479.41;;;8.55;100.00
58534;BME280;44109;52.398;7.024;2023-04-23T04:14:10;100478.09;;;8.68;100.00
58534;BME280;44109;52.398;7.024;2023-04-23T04:16:39;100472.41;;;8.80;100.00
58534;BME280;44109;52.398;7.024;2023-04-23T04:19:07;100474.22;;;8.92;100.00
58534;BME280;44109;52.398;7.024;2023-04-23T04:21:34;100474.84;;;9.05;100.00
58534;BME280;44109;52.398;7.024;2023-04-23T04:24:03;100467.28;;;9.02;100.00
58534;BME280;44109;52.398;7.024;2023-04-23T04:26:32;100487.03;;;9.23;100.00
58534;BME280;44109;52.398;7.024;2023-04-23T04:29:00;100476.69;;;9.20;100.00
58534;BME280;44109;52.398;7.024;2023-04-23T04:31:28;100486.00;;;9.31;100.00
58534;BME280;44109;52.398;7.024;2023-04-23T04:33:57;100480.63;;;9.42;100.00
58534;BME280;44109;52.398;7.024;2023-04-23T04:36:25;100484.63;;;9.45;100.00
58534;BME280;44109;52.398;7.024;2023-04-23T04:38:54;100477.63;;;9.51;100.00
58534;BME280;44109;52.398;7.024;2023-04-23T04:41:23;100473.81;;;9.59;100.00
58534;BME280;44109;52.398;7.024;2023-04-23T04:43:53;100472.31;;;9.65;100.00
58534;BME280;44109;52.398;7.024;2023-04-23T04:46:20;100466.78;;;9.65;100.00
58534;BME280;44109;52.398;7.024;2023-04-23T04:48:48;100445.97;;;9.52;100.00
58534;BME280;44109;52.398;7.024;2023-04-23T04:51:17;100472.47;;;9.76;100.00
58534;BME280;44109;52.398;7.024;2023-04-23T04:53:46;100471.72;;;9.79;100.00
58534;BME280;44109;52.398;7.024;2023-04-23T04:56:13;100486.81;;;9.81;100.00
58534;BME280;44109;52.398;7.024;2023-04-23T04:58:41;100478.13;;;9.83;100.00
58534;BME280;44109;52.398;7.024;2023-04-23T05:01:09;100472.53;;;9.79;100.00
58534;BME280;44109;52.398;7.024;2023-04-23T05:03:38;100469.91;;;9.90;100.00
58534;BME280;44109;52.398;7.024;2023-04-23T05:06:06;100483.94;;;10.01;100.00
58534;BME280;44109;52.398;7.024;2023-04-23T05:08:35;100480.13;;;10.12;100.00
58534;BME280;44109;52.398;7.024;2023-04-23T05:11:02;100483.38;;;10.18;100.00
58534;BME280;44109;52.398;7.024;2023-04-23T05:13:30;100484.25;;;10.22;100.00
58534;BME280;44109;52.398;7.024;2023-04-23T05:15:58;100486.38;;;10.32;100.00
58534;BME280;44109;52.398;7.024;2023-04-23T05:18:26;100468.91;;;10.28;100.00
58534;BME280;44109;52.398;7.024;2023-04-23T05:20:54;100492.22;;;10.54;100.00
58534;BME280;44109;52.398;7.024;2023-04-23T05:23:22;100489.56;;;10.64;100.00
58534;BME280;44109;52.398;7.024;2023-04-23T05:25:51;100480.94;;;10.73;100.00
58534;BME280;44109;52.398;7.024;2023-04-23T05:28:21;100477.84;;;10.78;100.00
58534;BME280;44109;52.398;7.024;2023-04-23T05:30:49;100469.22;;;10.87;100.00
58534;BME280;44109;52.398;7.024;2023-04-23T05:33:17;100457.13;;;10.69;100.00
58534;BME280;44109;52.398;7.024;2023-04-23T05:35:45;100480.09;;;10.69;100.00
58534;BME280;44109;52.398;7.024;2023-04-23T05:38:12;100466.19;;;10.65;100.00
58534;BME280;44109;52.398;7.024;2023-04-23T05:40:40;100469.97;;;10.84;100.00
58534;BME280;44109;52.398;7.024;2023-04-23T05:43:09;100469.50;;;11.15;100.00
58534;BME280;44109;52.398;7.024;2023-04-23T05:45:37;100492.00;;;11.48;100.00
58534;BME280;44109;52.398;7.024;2023-04-23T05:48:05;100469.56;;;11.71;100.00
58534;BME280;44109;52.398;7.024;2023-04-23T05:50:32;100483.69;;;11.96;100.00
58534;BME280;44109;52.398;7.024;2023-04-23T05:53:00;100483.44;;;12.22;100.00
58534;BME280;44109;52.398;7.024;2023-04-23T05:55:28;100477.47;;;12.24;100.00
58534;BME280;44109;52.398;7.024;2023-04-23T05:57:55;100474.06;;;12.62;100.00
58534;BME280;44109;52.398;7.024;2023-04-23T06:00:24;100476.16;;;12.90;100.00
58534;BME280;44109;52.398;7.024;2023-04-23T06:02:52;100482.59;;;13.19;100.00
58534;BME280;44109;52.398;7.024;2023-04-23T06:05:20;100491.00;;;13.52;100.00
58534;BME280;44109;52.398;7.024;2023-04-23T06:07:47;100494.97;;;13.79;100.00
58534;BME280;44109;52.398;7.024;2023-04-23T06:10:15;100481.41;;;14.13;100.00
58534;BME280;44109;52.398;7.024;2023-04-23T06:12:43;100495.31;;;14.24;100.00
58534;BME280;44109;52.398;7.024;2023-04-23T06:15:10;100473.69;;;14.67;100.00
58534;BME280;44109;52.398;7.024;2023-04-23T06:17:39;100477.41;;;15.13;100.00
58534;BME280;44109;52.398;7.024;2023-04-23T06:20:08;100469.16;;;15.47;100.00
58534;BME280;44109;52.398;7.024;2023-04-23T06:22:36;100462.53;;;15.79;100.00
58534;BME280;44109;52.398;7.024;2023-04-23T06:25:05;100455.22;;;15.92;100.00
58534;BME280;44109;52.398;7.024;2023-04-23T06:27:33;100466.16;;;16.51;100.00
58534;BME280;44109;52.398;7.024;2023-04-23T06:30:00;100453.06;;;16.75;100.00
58534;BME280;44109;52.398;7.024;2023-04-23T06:32:28;100458.44;;;16.93;100.00
58534;BME280;44109;52.398;7.024;2023-04-23T06:34:57;100444.59;;;17.09;100.00
58534;BME280;44109;52.398;7.024;2023-04-23T06:37:25;100442.13;;;17.38;100.00
58534;BME280;44109;52.398;7.024;2023-04-23T06:39:53;100454.25;;;17.82;100.00
58534;BME280;44109;52.398;7.024;2023-04-23T06:42:20;100434.59;;;17.82;100.00
58534;BME280;44109;52.398;7.024;2023-04-23T06:44:48;100447.09;;;17.54;100.00
58534;BME280;44109;52.398;7.024;2023-04-23T06:47:18;100458.69;;;17.29;100.00
58534;BME280;44109;52.398;7.024;2023-04-23T06:49:46;100448.88;;;17.17;100.00
58534;BME280;44109;52.398;7.024;2023-04-23T06:52:15;100440.78;;;17.23;100.00
58534;BME280;44109;52.398;7.024;2023-04-23T06:54:42;100440.59;;;16.80;100.00
58534;BME280;44109;52.398;7.024;2023-04-23T06:57:10;100426.06;;;16.88;100.00
58534;BME280;44109;52.398;7.024;2023-04-23T06:59:38;100437.47;;;17.05;100.00
58534;BME280;44109;52.398;7.024;2023-04-23T07:02:06;100438.97;;;16.82;100.00
58534;BME280;44109;52.398;7.024;2023-04-23T07:04:34;100419.47;;;16.75;100.00
58534;BME280;44109;52.398;7.024;2023-04-23T07:07:02;100414.72;;;16.68;100.00
58534;BME280;44109;52.398;7.024;2023-04-23T07:09:32;100421.22;;;16.31;100.00
58534;BME280;44109;52.398;7.024;2023-04-23T07:11:59;100417.09;;;16.39;100.00
58534;BME280;44109;52.398;7.024;2023-04-23T07:14:28;100417.03;;;16.46;100.00
58534;BME280;44109;52.398;7.024;2023-04-23T07:16:56;100425.13;;;16.37;100.00
58534;BME280;44109;52.398;7.024;2023-04-23T07:19:24;100422.19;;;16.17;100.00
58534;BME280;44109;52.398;7.024;2023-04-23T07:21:52;100416.88;;;16.57;100.00
58534;BME280;44109;52.398;7.024;2023-04-23T07:24:20;100416.19;;;16.80;100.00
58534;BME280;44109;52.398;7.024;2023-04-23T07:26:49;100414.03;;;16.61;100.00
58534;BME280;44109;52.398;7.024;2023-04-23T07:29:16;100406.94;;;16.83;100.00
58534;BME280;44109;52.398;7.024;2023-04-23T07:31:44;100399.84;;;17.02;100.00
58534;BME280;44109;52.398;7.024;2023-04-23T07:34:12;100411.94;;;17.93;100.00
58534;BME280;44109;52.398;7.024;2023-04-23T07:36:39;100362.16;;;18.17;100.00
58534;BME280;44109;52.398;7.024;2023-04-23T07:39:07;100395.19;;;18.09;100.00
58534;BME280;44109;52.398;7.024;2023-04-23T07:41:35;100390.75;;;18.68;100.00
58534;BME280;44109;52.398;7.024;2023-04-23T07:44:04;100390.56;;;19.11;100.00
58534;BME280;44109;52.398;7.024;2023-04-23T07:46:32;100388.38;;;19.68;100.00
58534;BME280;44109;52.398;7.024;2023-04-23T07:49:00;100392.41;;;20.25;100.00
58534;BME280;44109;52.398;7.024;2023-04-23T07:51:27;100391.84;;;21.23;100.00
58534;BME280;44109;52.398;7.024;2023-04-23T07:53:56;100391.84;;;20.97;89.22
58534;BME280;44109;52.398;7.024;2023-04-23T07:56:24;100389.16;;;20.26;84.47
58534;BME280;44109;52.398;7.024;2023-04-23T07:58:52;100390.44;;;20.09;96.74
58534;BME280;44109;52.398;7.024;2023-04-23T08:01:22;100393.69;;;20.37;82.89
58534;BME280;44109;52.398;7.024;2023-04-23T08:03:50;100385.63;;;19.81;89.15
58534;BME280;44109;52.398;7.024;2023-04-23T08:06:21;100384.38;;;20.65;95.44
58534;BME280;44109;52.398;7.024;2023-04-23T08:08:49;100377.56;;;20.37;96.13
58534;BME280;44109;52.398;7.024;2023-04-23T08:11:17;100368.56;;;20.42;82.80
58534;BME280;44109;52.398;7.024;2023-04-23T08:13:45;100369.44;;;20.39;93.99
58534;BME280;44109;52.398;7.024;2023-04-23T08:16:13;100371.28;;;20.46;79.18
58534;BME280;44109;52.398;7.024;2023-04-23T08:18:42;100376.28;;;21.18;78.23
58534;BME280;44109;52.398;7.024;2023-04-23T08:21:09;100384.16;;;21.11;74.09
58534;BME280;44109;52.398;7.024;2023-04-23T08:23:37;100381.56;;;21.42;81.29
58534;BME280;44109;52.398;7.024;2023-04-23T08:26:05;100388.44;;;21.15;75.63
58534;BME280;44109;52.398;7.024;2023-04-23T08:28:33;100375.03;;;21.07;70.38
58534;BME280;44109;52.398;7.024;2023-04-23T08:31:00;100372.66;;;21.18;71.40
58534;BME280;44109;52.398;7.024;2023-04-23T08:33:28;100366.63;;;21.54;77.49
58534;BME280;44109;52.398;7.024;2023-04-23T08:35:57;100375.00;;;21.79;66.84
58534;BME280;44109;52.398;7.024;2023-04-23T08:38:25;100360.97;;;22.33;63.11
58534;BME280;44109;52.398;7.024;2023-04-23T08:40:56;100373.25;;;22.39;69.77
58534;BME280;44109;52.398;7.024;2023-04-23T08:43:36;100368.78;;;23.31;73.58
58534;BME280;44109;52.398;7.024;2023-04-23T08:46:11;100369.34;;;22.98;62.00
58534;BME280;44109;52.398;7.024;2023-04-23T08:48:41;100381.78;;;22.79;61.14
58534;BME280;44109;52.398;7.024;2023-04-23T08:51:17;100377.09;;;22.85;61.18
58534;BME280;44109;52.398;7.024;2023-04-23T08:53:49;100382.94;;;22.60;58.59
58534;BME280;44109;52.398;7.024;2023-04-23T08:56:20;100384.06;;;22.31;61.49
58534;BME280;44109;52.398;7.024;2023-04-23T08:58:49;100376.09;;;21.60;61.08
58534;BME280;44109;52.398;7.024;2023-04-23T09:01:16;100373.38;;;21.57;66.59
58534;BME280;44109;52.398;7.024;2023-04-23T09:03:45;100372.19;;;22.01;64.68
58534;BME280;44109;52.398;7.024;2023-04-23T09:06:15;100378.72;;;21.55;66.02
58534;BME280;44109;52.398;7.024;2023-04-23T09:08:42;100366.16;;;21.90;64.21
58534;BME280;44109;52.398;7.024;2023-04-23T09:11:12;100363.78;;;22.11;61.64
58534;BME280;44109;52.398;7.024;2023-04-23T09:13:41;100369.00;;;21.56;64.07
58534;BME280;44109;52.398;7.024;2023-04-23T09:16:09;100362.91;;;22.14;67.63
58534;BME280;44109;52.398;7.024;2023-04-23T09:18:37;100357.25;;;22.14;61.43
58534;BME280;44109;52.398;7.024;2023-04-23T09:21:06;100350.63;;;21.73;57.26
58534;BME280;44109;52.398;7.024;2023-04-23T09:23:37;100356.69;;;21.84;65.63
58534;BME280;44109;52.398;7.024;2023-04-23T09:26:06;100357.94;;;21.83;67.53
58534;BME280;44109;52.398;7.024;2023-04-23T09:28:34;100356.50;;;22.00;67.17
58534;BME280;44109;52.398;7.024;2023-04-23T09:31:04;100357.19;;;21.22;60.93
58534;BME280;44109;52.398;7.024;2023-04-23T09:33:34;100355.75;;;21.87;65.82
58534;BME280;44109;52.398;7.024;2023-04-23T09:36:07;100348.91;;;21.53;58.40
58534;BME280;44109;52.398;7.024;2023-04-23T09:38:38;100353.50;;;20.87;66.97
58534;BME280;44109;52.398;7.024;2023-04-23T09:41:21;100352.03;;;20.95;60.66
58534;BME280;44109;52.398;7.024;2023-04-23T09:43:49;100354.81;;;20.32;64.19
58534;BME280;44109;52.398;7.024;2023-04-23T09:46:31;100348.28;;;19.64;66.20
58534;BME280;44109;52.398;7.024;2023-04-23T09:49:01;100353.69;;;19.71;68.82
58534;BME280;44109;52.398;7.024;2023-04-23T09:51:31;100346.19;;;19.35;69.77
58534;BME280;44109;52.398;7.024;2023-04-23T09:54:00;100340.91;;;19.37;70.67
58534;BME280;44109;52.398;7.024;2023-04-23T09:56:29;100344.50;;;19.54;75.10
58534;BME280;44109;52.398;7.024;2023-04-23T09:58:57;100347.78;;;19.82;72.60
58534;BME280;44109;52.398;7.024;2023-04-23T10:01:28;100334.28;;;20.31;77.25
58534;BME280;44109;52.398;7.024;2023-04-23T10:03:56;100337.06;;;20.73;70.45
58534;BME280;44109;52.398;7.024;2023-04-23T10:06:28;100329.84;;;20.72;69.20
58534;BME280;44109;52.398;7.024;2023-04-23T10:08:57;100323.06;;;20.82;74.49
58534;BME280;44109;52.398;7.024;2023-04-23T10:11:27;100326.66;;;20.70;69.83
58534;BME280;44109;52.398;7.024;2023-04-23T10:13:55;100323.78;;;20.19;69.21
58534;BME280;44109;52.398;7.024;2023-04-23T10:16:23;100314.59;;;19.60;64.87
58534;BME280;44109;52.398;7.024;2023-04-23T10:18:51;100305.53;;;19.69;72.54
58534;BME280;44109;52.398;7.024;2023-04-23T10:21:24;100319.69;;;19.94;67.60
58534;BME280;44109;52.398;7.024;2023-04-23T10:23:55;100321.03;;;19.90;74.54
58534;BME280;44109;52.398;7.024;2023-04-23T10:26:26;100320.91;;;20.35;70.92
58534;BME280;44109;52.398;7.024;2023-04-23T10:28:56;100320.81;;;20.51;66.10
58534;BME280;44109;52.398;7.024;2023-04-23T10:31:27;100322.97;;;20.73;74.79
58534;BME280;44109;52.398;7.024;2023-04-23T10:33:59;100323.75;;;20.86;67.33
58534;BME280;44109;52.398;7.024;2023-04-23T10:36:31;100321.72;;;20.74;65.05
58534;BME280;44109;52.398;7.024;2023-04-23T10:38:59;100313.59;;;20.50;63.52
58534;BME280;44109;52.398;7.024;2023-04-23T10:41:35;100310.63;;;20.92;66.98
58534;BME280;44109;52.398;7.024;2023-04-23T10:44:05;100311.88;;;20.91;67.94
58534;BME280;44109;52.398;7.024;2023-04-23T10:46:37;100309.84;;;20.41;67.39
58534;BME280;44109;52.398;7.024;2023-04-23T10:49:10;100311.91;;;20.66;61.53
58534;BME280;44109;52.398;7.024;2023-04-23T10:51:41;100315.13;;;21.02;65.86
58534;BME280;44109;52.398;7.024;2023-04-23T10:54:13;100312.25;;;20.00;61.80
58534;BME280;44109;52.398;7.024;2023-04-23T10:56:43;100308.41;;;20.62;67.46
58534;BME280;44109;52.398;7.024;2023-04-23T10:59:20;100307.59;;;20.36;59.58
58534;BME280;44109;52.398;7.024;2023-04-23T11:01:49;100296.06;;;19.63;58.15
58534;BME280;44109;52.398;7.024;2023-04-23T11:04:22;100305.00;;;19.58;61.51
58534;BME280;44109;52.398;7.024;2023-04-23T11:06:55;100299.38;;;19.87;62.70
58534;BME280;44109;52.398;7.024;2023-04-23T11:09:40;100308.09;;;19.63;60.09
58534;BME280;44109;52.398;7.024;2023-04-23T11:12:12;100293.19;;;19.34;58.97
58534;BME280;44109;52.398;7.024;2023-04-23T11:14:52;100314.56;;;19.31;60.35
58534;BME280;44109;52.398;7.024;2023-04-23T11:17:23;100305.97;;;19.22;59.15
58534;BME280;44109;52.398;7.024;2023-04-23T11:20:14;100298.69;;;19.54;63.33
58534;BME280;44109;52.398;7.024;2023-04-23T11:22:46;100294.91;;;19.60;58.05
58534;BME280;44109;52.398;7.024;2023-04-23T11:25:19;100289.50;;;19.66;56.46
58534;BME280;44109;52.398;7.024;2023-04-23T11:27:50;100295.75;;;19.73;59.09
58534;BME280;44109;52.398;7.024;2023-04-23T11:30:20;100287.97;;;19.48;56.55
58534;BME280;44109;52.398;7.024;2023-04-23T11:32:51;100285.59;;;19.63;60.22
58534;BME280;44109;52.398;7.024;2023-04-23T11:35:21;100277.75;;;19.55;55.27
58534;BME280;44109;52.398;7.024;2023-04-23T11:37:53;100260.19;;;19.05;57.04
58534;BME280;44109;52.398;7.024;2023-04-23T11:40:22;100271.97;;;18.84;56.28
58534;BME280;44109;52.398;7.024;2023-04-23T11:42:52;100275.91;;;19.02;56.27
58534;BME280;44109;52.398;7.024;2023-04-23T11:45:22;100277.84;;;19.06;61.32
58534;BME280;44109;52.398;7.024;2023-04-23T11:47:52;100282.69;;;19.50;62.57
58534;BME280;44109;52.398;7.024;2023-04-23T11:50:22;100275.63;;;19.88;61.00
58534;BME280;44109;52.398;7.024;2023-04-23T11:52:51;100264.88;;;19.70;58.27
58534;BME280;44109;52.398;7.024;2023-04-23T11:55:21;100259.91;;;20.16;57.84
58534;BME280;44109;52.398;7.024;2023-04-23T11:57:51;100275.03;;;20.47;60.68
58534;BME280;44109;52.398;7.024;2023-04-23T12:00:20;100261.72;;;20.22;56.61
58534;BME280;44109;52.398;7.024;2023-04-23T12:02:51;100260.06;;;19.83;56.73
58534;BME280;44109;52.398;7.024;2023-04-23T12:05:21;100261.81;;;20.19;59.42
58534;BME280;44109;52.398;7.024;2023-04-23T12:07:50;100245.09;;;20.54;57.14
58534;BME280;44109;52.398;7.024;2023-04-23T12:10:18;100248.56;;;20.58;56.63
58534;BME280;44109;52.398;7.024;2023-04-23T12:12:52;100235.88;;;20.88;55.82
58534;BME280;44109;52.398;7.024;2023-04-23T12:15:20;100234.59;;;21.01;55.10
58534;BME280;44109;52.398;7.024;2023-04-23T12:17:48;100199.50;;;21.02;59.89
58534;BME280;44109;52.398;7.024;2023-04-23T12:20:20;100219.88;;;21.19;52.45
58534;BME280;44109;52.398;7.024;2023-04-23T12:22:48;100211.03;;;21.30;56.91
58534;BME280;44109;52.398;7.024;2023-04-23T12:25:15;100209.69;;;21.00;52.62
58534;BME280;44109;52.398;7.024;2023-04-23T12:27:48;100212.81;;;21.02;54.31
58534;BME280;44109;52.398;7.024;2023-04-23T12:30:17;100221.63;;;21.39;57.01
58534;BME280;44109;52.398;7.024;2023-04-23T12:32:45;100207.63;;;21.79;55.17
58534;BME280;44109;52.398;7.024;2023-04-23T12:35:13;100210.03;;;21.59;50.64
58534;BME280;44109;52.398;7.024;2023-04-23T12:37:40;100207.78;;;21.53;50.55
58534;BME280;44109;52.398;7.024;2023-04-23T12:40:09;100206.72;;;21.38;52.21
58534;BME280;44109;52.398;7.024;2023-04-23T12:42:37;100214.09;;;21.36;51.21
58534;BME280;44109;52.398;7.024;2023-04-23T12:45:06;100189.41;;;21.49;54.19
58534;BME280;44109;52.398;7.024;2023-04-23T12:47:37;100199.97;;;21.58;52.44
58534;BME280;44109;52.398;7.024;2023-04-23T12:50:06;100193.63;;;21.44;48.99
58534;BME280;44109;52.398;7.024;2023-04-23T12:52:34;100185.41;;;21.02;49.10
58534;BME280;44109;52.398;7.024;2023-04-23T12:55:03;100187.03;;;20.91;48.43
58534;BME280;44109;52.398;7.024;2023-04-23T12:57:31;100185.16;;;21.10;50.42
58534;BME280;44109;52.398;7.024;2023-04-23T12:59:59;100178.88;;;21.27;53.04